createdAt,value
2019-05-21T00:01:19.019Z,0
2019-05-21T00:07:39.879Z,0
2019-05-21T00:08:20.430Z,0
2019-05-21T00:09:00.822Z,0
2019-05-21T00:09:41.352Z,0
2019-05-21T00:10:21.663Z,0
2019-05-21T00:11:02.086Z,0
2019-05-21T00:11:42.512Z,0
2019-05-21T00:12:22.866Z,0
2019-05-21T00:13:03.355Z,0
2019-05-21T00:13:43.646Z,0
2019-05-21T00:14:24.116Z,0
2019-05-21T00:15:04.416Z,0
2019-05-21T00:15:44.825Z,0
2019-05-21T00:24:29.943Z,0
2019-05-21T00:25:10.300Z,0
2019-05-21T00:25:50.679Z,0
2019-05-21T00:26:31.080Z,0
2019-05-21T00:27:12.432Z,0
2019-05-21T00:27:54.316Z,0
2019-05-21T00:28:36.364Z,0
2019-05-21T00:33:20.168Z,0
2019-05-21T00:34:00.477Z,0
2019-05-21T00:34:43.732Z,0
2019-05-21T00:35:21.260Z,0
2019-05-21T00:36:01.773Z,0
2019-05-21T00:36:43.197Z,0
2019-05-21T00:37:23.577Z,0
2019-05-21T00:38:44.423Z,0
2019-05-21T00:39:24.917Z,0
2019-05-21T00:44:49.891Z,0
2019-05-21T00:45:30.386Z,0
2019-05-21T00:46:10.741Z,0
2019-05-21T00:46:51.125Z,0
2019-05-21T00:47:32.504Z,0
2019-05-21T00:48:12.807Z,0
2019-05-21T00:48:53.149Z,0
2019-05-21T00:49:33.608Z,0
2019-05-21T00:50:13.943Z,0
2019-05-21T00:50:54.324Z,0
2019-05-21T00:51:34.710Z,0
2019-05-21T00:56:59.740Z,0
2019-05-21T00:57:39.941Z,0
2019-05-21T00:58:20.364Z,0
2019-05-21T00:59:00.754Z,0
2019-05-21T00:59:41.154Z,0
2019-05-21T01:00:21.561Z,0
2019-05-21T01:01:02.012Z,0
2019-05-21T01:01:42.435Z,0
2019-05-21T01:02:22.827Z,0
2019-05-21T01:03:03.269Z,0
2019-05-21T01:03:43.624Z,0
2019-05-21T01:04:25.848Z,0
2019-05-21T01:07:50.528Z,0
2019-05-21T01:08:30.928Z,0
2019-05-21T01:09:11.283Z,0
2019-05-21T01:09:53.590Z,0
2019-05-21T01:10:34.735Z,0
2019-05-21T01:14:41.111Z,0
2019-05-21T01:15:21.488Z,0
2019-05-21T01:16:02.007Z,0
2019-05-21T01:16:42.363Z,0
2019-05-21T01:17:22.720Z,0
2019-05-21T01:18:03.239Z,0
2019-05-21T01:18:44.562Z,0
2019-05-21T01:19:24.931Z,0
2019-05-21T01:27:29.810Z,0
2019-05-21T01:28:10.196Z,0
2019-05-21T01:28:50.620Z,0
2019-05-21T01:29:31.054Z,0
2019-05-21T01:30:11.432Z,0
2019-05-21T01:30:51.841Z,0
2019-05-21T01:31:32.213Z,0
2019-05-21T01:32:13.271Z,0
2019-05-21T01:32:53.695Z,0
2019-05-21T01:33:34.066Z,0
2019-05-21T01:34:14.465Z,0
2019-05-21T01:34:54.916Z,0
2019-05-21T01:43:02.754Z,0
2019-05-21T01:43:40.144Z,0
2019-05-21T01:44:20.503Z,0
2019-05-21T01:45:00.976Z,0
2019-05-21T01:45:41.261Z,0
2019-05-21T01:46:21.708Z,0
2019-05-21T01:47:02.419Z,0
2019-05-21T01:47:43.311Z,0
2019-05-21T01:48:23.660Z,0
2019-05-21T01:49:04.088Z,0
2019-05-21T01:49:44.458Z,0
2019-05-21T01:50:24.865Z,0
2019-05-21T01:56:29.854Z,0
2019-05-21T01:57:10.144Z,0
2019-05-21T01:57:50.785Z,0
2019-05-21T01:59:11.575Z,0
2019-05-21T01:59:53.492Z,0
2019-05-21T02:00:34.001Z,0
2019-05-21T02:01:14.351Z,0
2019-05-21T02:01:54.671Z,0
2019-05-21T02:08:00.768Z,0
2019-05-21T02:08:41.247Z,0
2019-05-21T02:09:21.718Z,0
2019-05-21T02:10:02.050Z,0
2019-05-21T02:10:42.373Z,0
2019-05-21T02:11:22.752Z,0
2019-05-21T02:12:03.255Z,0
2019-05-21T02:12:43.701Z,0
2019-05-21T02:13:24.088Z,0
2019-05-21T02:14:04.575Z,0
2019-05-21T02:19:29.724Z,0
2019-05-21T02:20:10.041Z,0
2019-05-21T02:20:50.491Z,0
2019-05-21T02:21:31.455Z,0
2019-05-21T02:22:11.897Z,0
2019-05-21T02:22:52.358Z,0
2019-05-21T02:23:32.805Z,0
2019-05-21T02:24:13.169Z,0
2019-05-21T02:24:53.518Z,0
2019-05-21T02:25:34.813Z,0
2019-05-21T02:32:59.998Z,0
2019-05-21T02:33:40.358Z,0
2019-05-21T02:34:20.786Z,0
2019-05-21T02:35:01.102Z,0
2019-05-21T02:35:53.328Z,0
2019-05-21T02:36:21.912Z,0
2019-05-21T02:37:06.053Z,0
2019-05-21T02:37:42.709Z,0
2019-05-21T02:38:23.121Z,0
2019-05-21T02:39:04.109Z,0
2019-05-21T02:39:44.207Z,0
2019-05-21T02:40:24.607Z,0
2019-05-21T02:45:10.142Z,0
2019-05-21T02:45:50.580Z,0
2019-05-21T02:46:31.450Z,0
2019-05-21T02:47:11.906Z,0
2019-05-21T02:47:52.234Z,0
2019-05-21T02:48:32.709Z,0
2019-05-21T02:49:13.054Z,0
2019-05-21T02:49:53.448Z,0
2019-05-21T02:50:33.946Z,0
2019-05-21T02:51:14.372Z,0
2019-05-21T02:51:54.713Z,0
2019-05-21T02:57:59.953Z,0
2019-05-21T02:58:40.418Z,0
2019-05-21T02:59:20.790Z,0
2019-05-21T03:00:01.237Z,0
2019-05-21T03:00:41.613Z,0
2019-05-21T03:01:21.998Z,0
2019-05-21T03:02:02.405Z,0
2019-05-21T03:02:42.834Z,0
2019-05-21T03:03:23.447Z,0
2019-05-21T03:04:03.918Z,0
2019-05-21T03:04:44.258Z,0
2019-05-21T03:05:24.591Z,0
2019-05-21T03:08:09.643Z,0
2019-05-21T03:08:50.027Z,0
2019-05-21T03:09:30.587Z,0
2019-05-21T03:10:10.958Z,0
2019-05-21T03:10:51.359Z,0
2019-05-21T03:11:31.759Z,0
2019-05-21T03:12:12.144Z,0
2019-05-21T03:12:52.560Z,0
2019-05-21T03:13:32.871Z,0
2019-05-21T03:14:13.466Z,0
2019-05-21T03:14:53.740Z,0
2019-05-21T03:15:34.239Z,0
2019-05-21T03:22:20.129Z,0
2019-05-21T03:23:00.615Z,0
2019-05-21T03:24:21.463Z,0
2019-05-21T03:25:02.866Z,0
2019-05-21T03:25:42.233Z,0
2019-05-21T03:26:22.649Z,0
2019-05-21T03:27:02.987Z,0
2019-05-21T03:27:43.383Z,0
2019-05-21T03:28:24.798Z,0
2019-05-21T03:35:10.620Z,0
2019-05-21T03:35:51.001Z,0
2019-05-21T03:36:33.665Z,0
2019-05-21T03:37:11.875Z,0
2019-05-21T03:37:52.166Z,0
2019-05-21T03:38:32.636Z,0
2019-05-21T03:39:13.026Z,0
2019-05-21T03:39:54.360Z,4
2019-05-21T03:40:35.045Z,4
2019-05-21T03:46:39.721Z,4
2019-05-21T03:47:20.092Z,4
2019-05-21T03:48:00.531Z,4
2019-05-21T03:48:41.055Z,4
2019-05-21T03:49:21.371Z,4
2019-05-21T03:50:01.727Z,4
2019-05-21T03:50:42.176Z,4
2019-05-21T03:51:24.069Z,4
2019-05-21T03:52:06.386Z,4
2019-05-21T03:54:09.661Z,4
2019-05-21T03:54:50.024Z,8
2019-05-21T03:55:31.161Z,8
2019-05-21T03:56:11.575Z,4
2019-05-21T03:56:51.891Z,8
2019-05-21T03:57:32.515Z,4
2019-05-21T03:58:12.868Z,4
2019-05-21T03:58:53.410Z,4
2019-05-21T03:59:33.764Z,4
2019-05-21T04:00:14.164Z,4
2019-05-21T04:00:54.541Z,4
2019-05-21T04:07:39.764Z,4
2019-05-21T04:08:20.013Z,8
2019-05-21T04:09:00.338Z,4
2019-05-21T04:09:41.128Z,8
2019-05-21T04:10:21.518Z,8
2019-05-21T04:11:02.757Z,12
2019-05-21T04:11:43.366Z,12
2019-05-21T04:12:23.747Z,12
2019-05-21T04:13:04.377Z,12
2019-05-21T04:13:45.852Z,8
2019-05-21T04:17:11.386Z,8
2019-05-21T04:17:51.775Z,12
2019-05-21T04:18:32.173Z,12
2019-05-21T04:19:12.613Z,12
2019-05-21T04:19:52.928Z,12
2019-05-21T04:20:33.336Z,12
2019-05-21T04:21:13.751Z,12
2019-05-21T04:21:55.843Z,12
2019-05-21T04:26:39.911Z,16
2019-05-21T04:27:20.330Z,16
2019-05-21T05:10:40.781Z,68
2019-05-21T05:11:20.989Z,76
2019-05-21T05:12:01.402Z,68
2019-05-21T05:12:41.885Z,76
2019-05-21T05:13:22.466Z,68
2019-05-21T05:14:02.912Z,76
2019-05-21T05:14:43.302Z,68
2019-05-21T05:15:23.806Z,72
2019-05-21T05:16:05.268Z,76
2019-05-21T05:16:45.723Z,76
2019-05-21T05:17:30.412Z,76
2019-05-21T05:18:52.765Z,92
2019-05-21T05:19:33.194Z,92
2019-05-21T05:20:13.623Z,92
2019-05-21T05:20:54.026Z,96
2019-05-21T05:21:34.655Z,92
2019-05-21T05:25:35.775Z,88
2019-05-21T05:26:16.743Z,92
2019-05-21T05:26:57.649Z,104
2019-05-21T05:27:39.401Z,104
2019-05-21T05:28:20.233Z,112
2019-05-21T05:38:11.880Z,112
2019-05-21T05:38:52.349Z,116
2019-05-21T05:39:33.427Z,116
2019-05-21T05:40:14.420Z,124
2019-05-21T05:40:54.967Z,132
2019-05-21T05:43:00.137Z,128
2019-05-21T05:43:40.700Z,128
2019-05-21T05:44:21.722Z,128
2019-05-21T05:45:02.319Z,128
2019-05-21T05:45:42.864Z,128
2019-05-21T05:46:23.377Z,136
2019-05-21T05:47:04.119Z,124
2019-05-21T05:53:09.301Z,92
2019-05-21T05:53:50.062Z,88
2019-05-21T05:55:13.676Z,88
2019-05-21T05:55:54.137Z,88
2019-05-21T05:58:02.461Z,76
2019-05-21T05:58:43.632Z,72
2019-05-21T05:59:24.129Z,76
2019-05-21T06:04:51.971Z,56
2019-05-21T06:05:33.338Z,60
2019-05-21T06:06:16.658Z,64
2019-05-21T06:08:19.245Z,64
2019-05-21T06:09:00.015Z,64
2019-05-21T06:09:41.412Z,68
2019-05-21T06:10:21.751Z,64
2019-05-21T06:11:02.643Z,72
2019-05-21T06:11:43.398Z,72
2019-05-21T06:14:32.675Z,80
2019-05-21T06:15:14.446Z,84
2019-05-21T06:15:56.123Z,92
2019-05-21T06:16:39.932Z,84
2019-05-21T06:17:32.062Z,84
2019-05-21T06:20:21.375Z,76
2019-05-21T06:21:02.417Z,80
2019-05-21T06:21:42.410Z,80
2019-05-21T06:22:23.302Z,88
2019-05-21T06:23:03.980Z,92
2019-05-21T06:23:44.865Z,96
2019-05-21T06:24:25.146Z,96
2019-05-21T06:25:46.669Z,88
2019-05-21T06:29:51.261Z,96
2019-05-21T06:30:32.690Z,96
2019-05-21T06:31:13.139Z,96
2019-05-21T06:31:53.785Z,100
2019-05-21T06:32:34.287Z,92
2019-05-21T06:33:14.817Z,96
2019-05-21T06:33:55.388Z,108
2019-05-21T06:34:35.877Z,104
2019-05-21T06:41:21.209Z,104
2019-05-21T06:42:01.968Z,108
2019-05-21T06:42:42.707Z,104
2019-05-21T06:43:24.925Z,104
2019-05-21T06:44:04.767Z,104
2019-05-21T06:44:45.910Z,108
2019-05-21T06:48:52.693Z,132
2019-05-21T06:49:32.503Z,116
2019-05-21T06:50:13.461Z,120
2019-05-21T06:50:55.374Z,120
2019-05-21T06:51:36.438Z,120
2019-05-21T06:53:41.634Z,116
2019-05-21T06:54:22.698Z,120
2019-05-21T06:55:03.334Z,112
2019-05-21T06:55:43.717Z,116
2019-05-21T06:56:24.166Z,120
2019-05-21T06:57:05.117Z,128
2019-05-21T06:57:45.619Z,124
2019-05-21T07:00:31.471Z,108
2019-05-21T07:01:12.266Z,112
2019-05-21T07:01:52.813Z,112
2019-05-21T07:02:34.207Z,120
2019-05-21T07:03:14.595Z,124
2019-05-21T07:03:55.065Z,120
2019-05-21T07:04:35.525Z,128
2019-05-21T07:05:16.051Z,132
2019-05-21T07:10:06.107Z,140
2019-05-21T07:15:32.894Z,144
2019-05-21T07:16:13.435Z,144
2019-05-21T07:16:53.846Z,144
2019-05-21T07:17:34.593Z,148
2019-05-21T07:18:55.944Z,148
2019-05-21T07:25:00.887Z,148
2019-05-21T07:27:39.908Z,172
2019-05-21T07:28:20.415Z,176
2019-05-21T07:29:00.784Z,172
2019-05-21T07:29:44.098Z,164
2019-05-21T07:30:24.701Z,172
2019-05-21T07:32:36.837Z,192
2019-05-21T07:33:25.686Z,188
2019-05-21T07:37:33.494Z,208
2019-05-21T07:41:34.578Z,264
2019-05-21T07:42:14.956Z,268
2019-05-21T07:42:55.592Z,272
2019-05-21T07:43:36.026Z,236
2019-05-21T07:44:16.432Z,284
2019-05-21T07:44:56.895Z,284
2019-05-21T07:45:37.307Z,252
2019-05-21T07:46:17.686Z,272
2019-05-21T07:47:38.773Z,236
2019-05-21T07:48:19.157Z,224
2019-05-21T07:53:44.485Z,228
2019-05-21T07:54:30.500Z,236
2019-05-21T07:57:55.927Z,244
2019-05-21T07:58:36.616Z,244
2019-05-21T07:59:16.943Z,252
2019-05-21T07:59:57.318Z,256
2019-05-21T08:00:37.739Z,248
2019-05-21T08:01:18.151Z,240
2019-05-21T08:01:58.613Z,236
2019-05-21T08:02:39.247Z,240
2019-05-21T08:07:24.234Z,256
2019-05-21T08:09:57.178Z,256
2019-05-21T08:10:38.062Z,276
2019-05-21T08:11:18.626Z,268
2019-05-21T08:11:59.104Z,268
2019-05-21T08:14:02.225Z,268
2019-05-21T08:14:45.254Z,244
2019-05-21T08:15:26.671Z,232
2019-05-21T08:17:32.508Z,236
2019-05-21T08:18:13.030Z,240
2019-05-21T08:18:54.212Z,240
2019-05-21T08:19:35.176Z,264
2019-05-21T08:20:16.578Z,240
2019-05-21T08:20:58.189Z,252
2019-05-21T08:23:04.223Z,232
2019-05-21T08:23:45.053Z,244
2019-05-21T08:24:25.501Z,244
2019-05-21T08:25:06.828Z,244
2019-05-21T08:25:47.227Z,268
2019-05-21T08:31:53.557Z,260
2019-05-21T08:32:33.830Z,276
2019-05-21T08:33:14.851Z,288
2019-05-21T08:33:55.293Z,292
2019-05-21T08:34:35.709Z,284
2019-05-21T08:35:16.336Z,296
2019-05-21T08:35:56.636Z,260
2019-05-21T11:12:36.779Z,800
2019-05-21T11:13:20.446Z,744
2019-05-21T11:14:02.958Z,760
2019-05-21T11:14:44.386Z,664
2019-05-21T11:16:22.181Z,828
2019-05-21T11:17:02.855Z,732
2019-05-21T11:19:09.246Z,816
2019-05-21T11:19:50.599Z,816
2019-05-21T11:20:33.445Z,704
2019-05-21T11:22:38.931Z,756
2019-05-21T11:23:20.909Z,692
2019-05-21T11:24:02.069Z,684
2019-05-21T11:24:43.892Z,672
2019-05-21T11:32:58.809Z,572
2019-05-21T11:33:39.620Z,572
2019-05-21T11:34:22.570Z,580
2019-05-21T11:35:02.386Z,568
2019-05-21T11:36:23.343Z,508
2019-05-21T11:42:28.057Z,560
2019-05-21T11:43:08.553Z,580
2019-05-21T11:43:48.935Z,528
2019-05-21T11:44:29.926Z,572
2019-05-21T11:45:10.639Z,572
2019-05-21T11:45:51.628Z,604
2019-05-21T11:49:18.391Z,596
2019-05-21T11:49:58.931Z,584
2019-05-21T11:50:39.578Z,592
2019-05-21T11:51:20.343Z,652
2019-05-21T11:52:00.755Z,700
2019-05-21T11:52:41.635Z,676
2019-05-21T11:53:22.727Z,620
2019-05-21T11:54:03.033Z,656
2019-05-21T12:00:08.139Z,660
2019-05-21T12:00:49.094Z,612
2019-05-21T12:01:31.455Z,576
2019-05-21T12:02:11.970Z,536
2019-05-21T12:02:52.521Z,516
2019-05-21T12:03:32.906Z,504
2019-05-21T12:09:38.512Z,440
2019-05-21T12:10:19.592Z,448
2019-05-21T12:10:59.467Z,444
2019-05-21T12:11:39.874Z,456
2019-05-21T12:12:20.344Z,500
2019-05-21T12:13:02.528Z,536
2019-05-21T12:13:43.010Z,564
2019-05-21T12:17:03.619Z,560
2019-05-21T12:17:44.957Z,556
2019-05-21T12:18:25.387Z,524
2019-05-21T12:19:08.085Z,512
2019-05-21T12:19:46.166Z,508
2019-05-21T12:20:35.722Z,580
2019-05-21T12:21:07.132Z,612
2019-05-21T12:21:47.817Z,688
2019-05-21T12:29:13.441Z,624
2019-05-21T12:29:53.846Z,636
2019-05-21T12:30:34.283Z,640
2019-05-21T12:31:14.668Z,616
2019-05-21T12:31:55.136Z,580
2019-05-21T12:32:36.072Z,644
2019-05-21T12:33:16.385Z,636
2019-05-21T12:33:56.584Z,748
2019-05-21T12:34:38.977Z,672
2019-05-21T12:35:19.012Z,696
2019-05-21T12:39:23.514Z,624
2019-05-21T12:40:04.263Z,688
2019-05-21T12:40:44.647Z,640
2019-05-21T12:41:25.096Z,644
2019-05-21T12:42:05.548Z,636
2019-05-21T12:42:45.971Z,596
2019-05-21T12:43:27.396Z,616
2019-05-21T12:44:07.700Z,568
2019-05-21T12:44:49.116Z,556
2019-05-21T12:48:55.411Z,568
2019-05-21T12:49:35.847Z,544
2019-05-21T12:50:16.862Z,552
2019-05-21T12:50:57.489Z,580
2019-05-21T12:55:43.973Z,568
2019-05-21T12:56:24.286Z,556
2019-05-21T12:57:06.174Z,556
2019-05-21T12:57:45.725Z,552
2019-05-21T12:58:26.593Z,544
2019-05-21T12:59:07.535Z,496
2019-05-21T12:59:48.911Z,528
2019-05-21T13:03:14.389Z,484
2019-05-21T13:03:55.541Z,448
2019-05-21T13:04:38.578Z,504
2019-05-21T13:07:23.455Z,468
2019-05-21T13:08:03.693Z,480
2019-05-21T13:08:44.920Z,468
2019-05-21T13:09:32.529Z,528
2019-05-21T13:10:06.956Z,528
2019-05-21T13:10:47.004Z,572
2019-05-21T13:11:27.756Z,568
2019-05-21T13:12:08.944Z,544
2019-05-21T13:16:13.410Z,540
2019-05-21T13:16:53.928Z,576
2019-05-21T13:17:34.424Z,576
2019-05-21T13:18:15.421Z,524
2019-05-21T13:18:55.955Z,508
2019-05-21T13:19:36.911Z,512
2019-05-21T13:20:16.809Z,508
2019-05-21T13:20:57.439Z,488
2019-05-21T13:21:37.855Z,516
2019-05-21T13:22:18.324Z,492
2019-05-21T13:26:23.433Z,548
2019-05-21T13:27:03.528Z,560
2019-05-21T13:27:47.576Z,584
2019-05-21T13:28:28.920Z,548
2019-05-21T13:29:55.003Z,588
2019-05-21T13:30:34.746Z,616
2019-05-21T13:31:15.504Z,556
2019-05-21T13:31:57.458Z,576
2019-05-21T13:32:37.380Z,528
2019-05-21T13:33:19.559Z,556
2019-05-21T13:33:58.232Z,528
2019-05-21T13:39:25.694Z,592
2019-05-21T13:40:05.454Z,564
2019-05-21T13:40:45.971Z,604
2019-05-21T13:41:26.311Z,644
2019-05-21T13:42:06.742Z,600
2019-05-21T13:42:47.237Z,632
2019-05-21T13:43:27.798Z,592
2019-05-21T13:44:08.408Z,504
2019-05-21T13:51:33.260Z,548
2019-05-21T13:52:13.650Z,556
2019-05-21T13:52:56.605Z,532
2019-05-21T13:53:37.420Z,524
2019-05-21T13:54:17.745Z,520
2019-05-21T13:54:58.154Z,520
2019-05-21T14:02:33.120Z,424
2019-05-21T14:03:13.497Z,416
2019-05-21T14:03:54.061Z,432
2019-05-21T14:04:34.509Z,448
2019-05-21T14:05:14.891Z,492
2019-05-21T14:05:55.585Z,488
2019-05-21T14:06:36.684Z,452
2019-05-21T14:07:16.641Z,456
2019-05-21T14:07:57.051Z,472
2019-05-21T14:08:37.788Z,476
2019-05-21T14:15:42.359Z,524
2019-05-21T14:16:22.757Z,532
2019-05-21T14:17:03.153Z,564
2019-05-21T14:17:43.598Z,536
2019-05-21T14:18:24.193Z,576
2019-05-21T14:19:04.610Z,580
2019-05-21T14:19:45.451Z,596
2019-05-21T14:20:26.182Z,572
2019-05-21T14:21:06.447Z,664
2019-05-21T14:21:46.915Z,640
2019-05-21T14:27:52.286Z,904
2019-05-21T14:28:34.531Z,916
2019-05-21T14:29:13.255Z,840
2019-05-21T14:29:53.676Z,792
2019-05-21T14:30:36.926Z,700
2019-05-21T14:31:17.346Z,652
2019-05-21T14:34:42.646Z,520
2019-05-21T14:35:23.097Z,508
2019-05-21T14:36:03.622Z,520
2019-05-21T14:36:45.846Z,592
2019-05-21T14:37:28.559Z,700
2019-05-21T14:43:32.301Z,464
2019-05-21T14:44:12.699Z,476
2019-05-21T14:44:53.097Z,596
2019-05-21T14:45:34.344Z,608
2019-05-21T14:46:13.917Z,652
2019-05-21T14:46:54.475Z,688
2019-05-21T14:47:34.878Z,756
2019-05-21T14:49:47.460Z,704
2019-05-21T14:50:27.839Z,704
2019-05-21T14:51:08.261Z,640
2019-05-21T14:51:48.688Z,752
2019-05-21T14:52:29.267Z,740
2019-05-21T14:53:09.554Z,752
2019-05-21T14:53:50.516Z,788
2019-05-21T14:54:30.810Z,772
2019-05-21T14:55:11.237Z,728
2019-05-21T14:55:51.699Z,760
2019-05-21T14:56:32.200Z,720
2019-05-21T14:57:12.889Z,808
2019-05-21T15:01:58.102Z,740
2019-05-21T15:02:39.671Z,796
2019-05-21T15:03:25.081Z,848
2019-05-21T15:04:00.355Z,832
2019-05-21T15:04:41.829Z,876
2019-05-21T15:05:22.066Z,868
2019-05-21T15:06:02.464Z,780
2019-05-21T15:06:42.935Z,684
2019-05-21T15:10:49.725Z,504
2019-05-21T15:11:29.274Z,456
2019-05-21T15:12:10.285Z,516
2019-05-21T15:12:50.711Z,564
2019-05-21T15:13:31.097Z,572
2019-05-21T15:14:11.483Z,572
2019-05-21T15:14:52.070Z,560
2019-05-21T15:15:32.479Z,544
2019-05-21T15:24:17.968Z,680
2019-05-21T15:24:58.345Z,672
2019-05-21T15:25:38.732Z,656
2019-05-21T15:26:19.143Z,624
2019-05-21T15:26:59.524Z,604
2019-05-21T15:27:40.851Z,580
2019-05-21T15:28:21.295Z,612
2019-05-21T15:29:01.677Z,664
2019-05-21T15:29:42.086Z,668
2019-05-21T15:30:22.528Z,644
2019-05-21T15:31:02.911Z,656
2019-05-21T15:38:27.888Z,608
2019-05-21T15:39:08.282Z,600
2019-05-21T15:39:48.684Z,612
2019-05-21T15:40:29.061Z,624
2019-05-21T15:41:12.383Z,636
2019-05-21T15:41:49.877Z,620
2019-05-21T15:42:30.398Z,624
2019-05-21T15:43:10.947Z,632
2019-05-21T15:43:51.529Z,616
2019-05-21T15:44:31.981Z,600
2019-05-21T15:45:12.382Z,576
2019-05-21T15:45:52.838Z,572
2019-05-21T15:52:38.174Z,624
2019-05-21T15:53:18.598Z,588
2019-05-21T15:54:39.492Z,536
2019-05-21T15:55:19.925Z,524
2019-05-21T15:56:02.158Z,516
2019-05-21T15:56:42.510Z,508
2019-05-21T15:57:22.908Z,512
2019-05-21T16:02:47.910Z,468
2019-05-21T16:03:28.340Z,456
2019-05-21T16:04:08.798Z,452
2019-05-21T16:04:49.114Z,456
2019-05-21T16:05:29.547Z,464
2019-05-21T16:06:09.979Z,464
2019-05-21T16:06:50.410Z,456
2019-05-21T16:07:30.832Z,440
2019-05-21T16:08:11.257Z,432
2019-05-21T16:08:51.692Z,412
2019-05-21T16:09:32.319Z,412
2019-05-21T16:10:12.742Z,400
2019-05-21T16:18:17.893Z,328
2019-05-21T16:18:58.302Z,320
2019-05-21T16:19:38.689Z,304
2019-05-21T16:20:19.053Z,292
2019-05-21T16:20:59.434Z,292
2019-05-21T16:21:39.862Z,288
2019-05-21T16:22:20.199Z,288
2019-05-21T16:23:00.608Z,292
2019-05-21T16:23:41.052Z,296
2019-05-21T16:24:21.427Z,296
2019-05-21T16:25:01.876Z,300
2019-05-21T16:25:42.282Z,292
2019-05-21T16:26:23.439Z,284
2019-05-21T17:09:31.307Z,164
2019-05-21T17:10:11.969Z,160
2019-05-21T17:10:53.665Z,156
2019-05-21T17:11:34.443Z,152
2019-05-21T17:12:15.217Z,148
2019-05-21T17:12:57.046Z,144
2019-05-21T17:13:37.995Z,136
2019-05-21T17:14:18.567Z,128
2019-05-21T17:14:59.230Z,128
2019-05-21T17:15:40.074Z,128
2019-05-21T17:19:26.888Z,116
2019-05-21T17:20:05.882Z,112
2019-05-21T17:20:46.259Z,108
2019-05-21T17:21:26.699Z,112
2019-05-21T17:22:07.085Z,112
2019-05-21T17:22:47.492Z,108
2019-05-21T17:23:27.862Z,108
2019-05-21T17:24:08.300Z,104
2019-05-21T17:30:53.212Z,88
2019-05-21T17:31:33.661Z,88
2019-05-21T17:32:14.012Z,96
2019-05-21T17:33:34.964Z,96
2019-05-21T17:34:15.381Z,96
2019-05-21T17:34:55.776Z,96
2019-05-21T17:35:36.222Z,100
2019-05-21T17:36:17.542Z,100
2019-05-21T17:36:57.935Z,104
2019-05-21T17:45:04.233Z,144
2019-05-21T17:45:44.649Z,144
2019-05-21T17:46:25.074Z,148
2019-05-21T17:47:05.583Z,148
2019-05-21T17:47:45.825Z,148
2019-05-21T17:48:27.180Z,152
2019-05-21T17:49:09.112Z,152
2019-05-21T17:51:13.087Z,160
2019-05-21T17:51:53.487Z,164
2019-05-21T17:52:34.076Z,172
2019-05-21T17:53:14.929Z,184
2019-05-21T17:53:55.334Z,192
2019-05-21T17:54:36.153Z,192
2019-05-21T17:55:16.385Z,196
2019-05-21T17:55:57.413Z,200
2019-05-21T17:59:32.088Z,188
2019-05-21T18:00:12.480Z,196
2019-05-21T18:00:54.758Z,192
2019-05-21T18:01:37.091Z,188
2019-05-21T18:05:42.260Z,152
2019-05-21T18:06:22.662Z,148
2019-05-21T18:07:04.932Z,144
2019-05-21T18:07:45.367Z,140
2019-05-21T18:08:26.762Z,136
2019-05-21T18:09:09.009Z,132
2019-05-21T18:13:51.964Z,116
2019-05-21T18:14:32.335Z,112
2019-05-21T18:15:12.740Z,104
2019-05-21T18:15:54.956Z,104
2019-05-21T18:16:44.280Z,100
2019-05-21T18:17:24.704Z,100
2019-05-21T18:18:05.094Z,100
2019-05-21T18:18:45.541Z,96
2019-05-21T18:20:06.623Z,96
2019-05-21T18:22:14.020Z,100
2019-05-21T18:22:54.411Z,104
2019-05-21T18:23:34.808Z,100
2019-05-21T18:24:15.229Z,96
2019-05-21T18:24:55.613Z,92
2019-05-21T18:25:36.082Z,84
2019-05-21T18:26:16.485Z,84
2019-05-21T18:26:56.919Z,84
2019-05-21T18:33:42.026Z,92
2019-05-21T18:34:23.103Z,84
2019-05-21T18:35:03.524Z,76
2019-05-21T18:35:45.387Z,72
2019-05-21T18:36:24.356Z,64
2019-05-21T18:37:04.778Z,60
2019-05-21T18:37:45.404Z,60
2019-05-21T18:38:25.832Z,56
2019-05-21T18:39:06.255Z,56
2019-05-21T18:39:46.706Z,56
2019-05-21T18:40:29.056Z,56
2019-05-21T18:44:32.076Z,84
2019-05-21T18:45:12.477Z,84
2019-05-21T18:45:52.872Z,84
2019-05-21T18:46:33.265Z,84
2019-05-21T18:47:13.662Z,80
2019-05-21T18:47:54.529Z,76
2019-05-21T18:48:34.947Z,72
2019-05-21T18:49:15.390Z,68
2019-05-21T18:56:13.226Z,40
2019-05-21T18:56:53.633Z,32
2019-05-21T18:57:34.058Z,28
2019-05-21T18:58:17.097Z,24
2019-05-21T18:58:54.903Z,24
2019-05-21T18:59:35.311Z,20
2019-05-21T19:00:15.729Z,20
2019-05-21T19:00:56.088Z,20
2019-05-21T19:01:38.485Z,20
2019-05-21T19:02:18.224Z,16
2019-05-21T19:07:43.622Z,12
2019-05-21T19:08:24.073Z,16
2019-05-21T19:09:04.792Z,12
2019-05-21T19:09:45.196Z,8
2019-05-21T19:10:25.651Z,12
2019-05-21T19:11:06.064Z,8
2019-05-21T19:11:46.869Z,8
2019-05-21T19:12:37.196Z,8
2019-05-21T19:13:07.626Z,8
2019-05-21T19:13:48.018Z,8
2019-05-21T19:17:13.809Z,12
2019-05-21T19:17:53.041Z,12
2019-05-21T19:18:34.507Z,8
2019-05-21T19:19:14.921Z,8
2019-05-21T19:19:55.486Z,8
2019-05-21T19:20:37.455Z,8
2019-05-21T19:21:19.152Z,8
2019-05-21T19:25:29.696Z,8
2019-05-21T19:28:12.945Z,4
2019-05-21T19:28:53.615Z,4
2019-05-21T19:29:35.158Z,4
2019-05-21T19:30:16.195Z,4
2019-05-21T19:30:57.185Z,4
2019-05-21T19:31:38.147Z,4
2019-05-21T19:32:18.226Z,4
2019-05-21T19:35:44.310Z,0
2019-05-21T19:36:26.175Z,0
2019-05-21T19:37:06.699Z,4
2019-05-21T19:37:47.161Z,4
2019-05-21T19:42:34.044Z,0
2019-05-21T19:43:14.576Z,0
2019-05-21T19:44:35.584Z,0
2019-05-21T19:45:16.038Z,0
2019-05-21T19:45:56.587Z,0
2019-05-21T19:46:37.125Z,0
2019-05-21T19:47:18.768Z,0
2019-05-21T19:52:42.874Z,0
2019-05-21T19:53:23.348Z,0
2019-05-21T19:54:03.757Z,0
2019-05-21T19:54:44.695Z,0
2019-05-21T19:55:24.651Z,0
2019-05-21T19:56:05.093Z,0
2019-05-21T19:57:26.577Z,0
2019-05-21T19:58:07.135Z,0
2019-05-21T20:02:54.112Z,0
2019-05-21T20:03:34.527Z,0
2019-05-21T20:04:14.984Z,0
2019-05-21T20:04:55.415Z,0
2019-05-21T20:05:35.849Z,0
2019-05-21T20:06:16.479Z,0
2019-05-21T20:06:56.938Z,0
2019-05-21T20:07:37.407Z,0
2019-05-21T20:08:17.752Z,0
2019-05-21T20:15:03.619Z,0
2019-05-21T20:18:05.125Z,0
2019-05-21T20:18:32.480Z,0
2019-05-21T20:19:12.838Z,0
2019-05-21T20:19:53.198Z,0
2019-05-21T20:20:33.595Z,0
2019-05-21T20:21:14.002Z,0
2019-05-21T20:21:55.122Z,0
2019-05-21T20:22:42.169Z,0
2019-05-21T20:23:23.149Z,0
2019-05-21T20:24:03.554Z,0
2019-05-21T20:24:44.024Z,0
2019-05-21T20:25:24.705Z,0
2019-05-21T20:26:05.147Z,0
2019-05-21T20:26:46.068Z,0
2019-05-21T20:27:26.747Z,0
2019-05-21T20:29:49.924Z,0
2019-05-21T20:30:30.721Z,0
2019-05-21T20:31:11.156Z,0
2019-05-21T20:31:51.645Z,0
2019-05-21T20:32:32.244Z,0
2019-05-21T20:39:39.112Z,0
2019-05-21T20:40:19.753Z,0
2019-05-21T20:41:00.262Z,0
2019-05-21T20:41:41.640Z,0
2019-05-21T20:46:25.626Z,0
2019-05-21T20:47:06.538Z,0
2019-05-21T20:47:47.078Z,0
2019-05-21T20:48:27.549Z,0
2019-05-21T20:49:08.278Z,0
2019-05-21T20:49:48.821Z,0
2019-05-21T20:50:29.724Z,0
2019-05-21T20:51:10.299Z,0
2019-05-21T20:56:35.416Z,0
2019-05-21T20:57:15.906Z,0
2019-05-21T20:57:56.339Z,0
2019-05-21T20:58:36.886Z,0
2019-05-21T20:59:17.320Z,0
2019-05-21T20:59:57.771Z,0
2019-05-21T21:00:38.268Z,0
2019-05-21T21:01:18.968Z,0
2019-05-21T21:01:59.617Z,0
2019-05-21T21:02:40.704Z,0
2019-05-21T21:07:25.361Z,0
2019-05-21T21:08:05.868Z,0
2019-05-21T21:12:16.844Z,0
2019-05-21T21:26:28.738Z,0
2019-05-21T21:33:33.208Z,0
2019-05-21T21:34:14.336Z,0
2019-05-21T21:34:54.789Z,0
2019-05-21T21:35:35.188Z,0
2019-05-21T21:40:20.501Z,0
2019-05-21T21:41:00.715Z,0
2019-05-21T21:41:41.268Z,0
2019-05-21T21:42:21.711Z,0
2019-05-21T21:43:02.150Z,0
2019-05-21T21:43:42.577Z,0
2019-05-21T21:44:33.366Z,0
2019-05-21T21:45:04.551Z,0
2019-05-21T21:45:44.969Z,0
2019-05-21T21:53:10.561Z,0
2019-05-21T21:53:51.008Z,0
2019-05-21T21:54:31.573Z,0
2019-05-21T21:55:12.008Z,0
2019-05-21T21:55:52.506Z,0
2019-05-21T21:56:32.922Z,0
2019-05-21T21:57:13.508Z,0
2019-05-21T21:57:53.941Z,0
2019-05-21T21:58:34.337Z,0
2019-05-21T21:59:14.776Z,0
2019-05-21T21:59:55.154Z,0
2019-05-21T22:07:20.054Z,0